createdAt,value
2022-08-19T00:02:13.574Z,101363.77
2022-08-19T00:04:43.416Z,101364.93
2022-08-19T00:07:13.300Z,101369.48
2022-08-19T00:09:43.089Z,101365.95
2022-08-19T00:12:13.436Z,101365.47
2022-08-19T00:14:43.553Z,101368.44
2022-08-19T00:17:13.916Z,101370.44
2022-08-19T00:19:43.435Z,101363.55
2022-08-19T00:22:12.913Z,101369.27
2022-08-19T00:24:44.437Z,101371.49
2022-08-19T00:27:26.238Z,101366.50
2022-08-19T00:29:52.447Z,101370.00
2022-08-19T00:32:19.419Z,101361.30
2022-08-19T00:34:49.206Z,101362.14
2022-08-19T00:37:18.986Z,101364.44
2022-08-19T00:39:49.059Z,101366.76
2022-08-19T00:42:20.230Z,101367.16
2022-08-19T00:44:51.333Z,101364.48
2022-08-19T00:47:21.109Z,101372.97
2022-08-19T00:49:54.018Z,101374.52
2022-08-19T00:52:33.300Z,101375.79
2022-08-19T00:55:04.715Z,101378.11
2022-08-19T00:57:40.138Z,101378.07
2022-08-19T01:00:14.808Z,101373.47
2022-08-19T01:02:45.321Z,101370.62
2022-08-19T01:05:19.458Z,101370.52
2022-08-19T01:07:51.779Z,101367.25
2022-08-19T01:10:24.535Z,101364.89
2022-08-19T01:12:55.851Z,101364.45
2022-08-19T01:15:31.418Z,101364.88
2022-08-19T01:18:04.010Z,101363.03
2022-08-19T01:20:35.227Z,101365.72
2022-08-19T01:23:05.776Z,101370.82
2022-08-19T01:25:38.925Z,101373.97
2022-08-19T01:28:32.198Z,101375.06
2022-08-19T01:30:51.585Z,101379.65
2022-08-19T01:33:21.535Z,101378.58
2022-08-19T01:35:52.342Z,101368.75
2022-08-19T01:38:28.011Z,101370.80
2022-08-19T01:40:57.489Z,101362.26
2022-08-19T01:43:27.562Z,101365.31
2022-08-19T01:45:57.411Z,101370.52
2022-08-19T01:48:27.558Z,101374.16
2022-08-19T01:50:57.499Z,101370.23
2022-08-19T01:53:33.549Z,101376.44
2022-08-19T01:55:59.810Z,101373.48
2022-08-19T01:58:33.313Z,101378.09
2022-08-19T02:01:03.679Z,101379.98
2022-08-19T02:03:33.507Z,101380.70
2022-08-19T02:06:05.988Z,101379.48
2022-08-19T02:08:38.958Z,101389.45
2022-08-19T02:11:09.299Z,101397.27
2022-08-19T02:13:39.045Z,101394.59
2022-08-19T02:16:11.355Z,101394.59
2022-08-19T02:18:41.137Z,101399.81
2022-08-19T02:21:11.738Z,101393.12
2022-08-19T02:23:41.526Z,101390.93
2022-08-19T02:26:13.250Z,101395.70
2022-08-19T02:28:44.065Z,101399.91
2022-08-19T02:31:16.287Z,101396.08
2022-08-19T02:33:47.282Z,101381.50
2022-08-19T02:36:20.591Z,101381.50
2022-08-19T02:38:55.025Z,101395.23
2022-08-19T02:41:26.806Z,101399.98
2022-08-19T02:44:30.112Z,101405.50
2022-08-19T02:46:34.889Z,101398.69
2022-08-19T02:49:07.010Z,101399.90
2022-08-19T02:51:42.431Z,101398.36
2022-08-19T02:54:14.567Z,101399.13
2022-08-19T02:56:46.042Z,101402.84
2022-08-19T02:59:15.874Z,101399.97
2022-08-19T03:01:45.691Z,101400.70
2022-08-19T03:04:16.796Z,101409.41
2022-08-19T03:06:49.319Z,101402.99
2022-08-19T03:09:21.250Z,101412.72
2022-08-19T03:11:52.694Z,101407.58
2022-08-19T03:14:24.065Z,101399.34
2022-08-19T03:16:54.525Z,101403.19
2022-08-19T03:19:24.051Z,101403.99
2022-08-19T03:21:54.233Z,101407.48
2022-08-19T03:24:24.115Z,101408.36
2022-08-19T03:29:48.783Z,101405.27
2022-08-19T03:32:32.142Z,101405.52
2022-08-19T03:34:51.810Z,101416.62
2022-08-19T03:37:21.652Z,101410.48
2022-08-19T03:39:51.513Z,101407.14
2022-08-19T03:42:38.608Z,101410.69
2022-08-19T03:44:53.468Z,101411.70
2022-08-19T03:47:23.309Z,101413.02
2022-08-19T03:49:53.165Z,101415.20
2022-08-19T03:52:22.730Z,101415.20
2022-08-19T03:54:52.567Z,101397.36
2022-08-19T03:57:27.811Z,101398.38
2022-08-19T03:59:53.840Z,101399.87
2022-08-19T04:02:23.355Z,101400.35
2022-08-19T04:04:56.007Z,101397.48
2022-08-19T04:07:25.789Z,101396.09
2022-08-19T04:09:55.626Z,101399.84
2022-08-19T04:12:25.423Z,101399.48
2022-08-19T04:14:55.213Z,101400.10
2022-08-19T04:17:24.994Z,101402.39
2022-08-19T04:19:55.124Z,101402.72
2022-08-19T04:22:24.897Z,101397.73
2022-08-19T04:24:56.369Z,101404.00
2022-08-19T04:27:27.375Z,101400.61
2022-08-19T04:29:57.167Z,101389.91
2022-08-19T04:32:26.778Z,101391.70
2022-08-19T04:35:02.460Z,101361.42
2022-08-19T04:37:35.321Z,101382.81
2022-08-19T04:40:21.068Z,101381.69
2022-08-19T04:42:50.867Z,101372.59
2022-08-19T04:45:22.841Z,101373.23
2022-08-19T04:47:58.996Z,101378.92
2022-08-19T04:50:29.318Z,101386.02
2022-08-19T04:52:59.109Z,101386.09
2022-08-19T04:55:29.271Z,101395.46
2022-08-19T04:57:59.126Z,101393.44
2022-08-19T05:00:29.652Z,101397.50
2022-08-19T05:02:59.446Z,101402.09
2022-08-19T05:05:31.974Z,101398.67
2022-08-19T05:08:03.537Z,101394.64
2022-08-19T05:10:33.611Z,101400.89
2022-08-19T05:13:03.564Z,101407.88
2022-08-19T05:15:33.716Z,101408.21
2022-08-19T05:18:21.402Z,101405.44
2022-08-19T05:21:08.901Z,101408.03
2022-08-19T05:23:39.075Z,101410.36
2022-08-19T05:26:11.873Z,101407.91
2022-08-19T05:28:41.674Z,101394.38
2022-08-19T05:31:11.954Z,101394.38
2022-08-19T05:33:42.304Z,101409.92
2022-08-19T05:36:12.057Z,101411.22
2022-08-19T05:38:42.117Z,101412.27
2022-08-19T05:41:14.587Z,101412.17
2022-08-19T05:43:44.397Z,101418.62
2022-08-19T05:46:19.540Z,101432.78
2022-08-19T05:48:51.289Z,101424.73
2022-08-19T05:51:27.275Z,101427.98
2022-08-19T05:53:54.922Z,101428.81
2022-08-19T05:56:24.700Z,101432.41
2022-08-19T05:58:55.032Z,101430.28
2022-08-19T06:01:24.817Z,101421.11
2022-08-19T06:03:55.195Z,101428.75
2022-08-19T06:06:24.717Z,101428.75
2022-08-19T06:08:54.495Z,101425.41
2022-08-19T06:11:27.625Z,101429.00
2022-08-19T06:13:59.850Z,101426.40
2022-08-19T06:16:31.750Z,101420.27
2022-08-19T06:19:02.784Z,101417.76
2022-08-19T06:21:33.836Z,101423.87
2022-08-19T06:24:03.868Z,101417.98
2022-08-19T06:26:35.611Z,101425.47
2022-08-19T06:29:07.463Z,101431.38
2022-08-19T06:31:37.988Z,101436.31
2022-08-19T06:34:10.364Z,101428.23
2022-08-19T06:36:45.767Z,101434.95
2022-08-19T06:39:21.937Z,101425.02
2022-08-19T06:41:56.799Z,101428.59
2022-08-19T06:44:27.217Z,101425.78
2022-08-19T06:46:57.834Z,101417.63
2022-08-19T06:49:29.252Z,101420.99
2022-08-19T06:52:02.032Z,101419.92
2022-08-19T06:54:32.202Z,101418.66
2022-08-19T06:57:04.284Z,101417.20
2022-08-19T06:59:34.943Z,101422.12
2022-08-19T07:02:07.413Z,101419.51
2022-08-19T07:04:42.085Z,101425.47
2022-08-19T07:07:20.151Z,101421.48
2022-08-19T07:09:55.354Z,101434.30
2022-08-19T07:12:18.134Z,101432.70
2022-08-19T07:14:48.202Z,101436.09
2022-08-19T07:17:19.260Z,101433.32
2022-08-19T07:19:50.403Z,101431.82
2022-08-19T07:22:21.453Z,101431.77
2022-08-19T07:24:51.715Z,101427.55
2022-08-19T07:27:24.786Z,101435.27
2022-08-19T07:29:56.309Z,101430.98
2022-08-19T07:32:27.747Z,101430.98
2022-08-19T07:34:58.006Z,101448.33
2022-08-19T07:37:33.135Z,101452.10
2022-08-19T07:40:02.503Z,101459.31
2022-08-19T07:42:32.496Z,101451.49
2022-08-19T07:45:02.616Z,101455.50
2022-08-19T07:47:50.424Z,101458.34
2022-08-19T07:50:08.181Z,101459.84
2022-08-19T07:52:40.297Z,101467.10
2022-08-19T07:55:40.478Z,101462.63
2022-08-19T08:00:17.606Z,101471.25
2022-08-19T08:02:47.842Z,101469.02
2022-08-19T08:05:39.638Z,101472.17
2022-08-19T08:08:27.719Z,101462.70
2022-08-19T08:10:57.728Z,101459.25
2022-08-19T08:13:27.825Z,101457.97
2022-08-19T08:15:58.959Z,101462.67
2022-08-19T08:18:30.409Z,101464.30
2022-08-19T08:21:00.915Z,101465.91
2022-08-19T08:23:32.451Z,101465.95
2022-08-19T08:26:03.117Z,101466.20
2022-08-19T08:28:32.960Z,101467.97
2022-08-19T08:31:02.458Z,101473.95
2022-08-19T08:33:35.183Z,101474.92
2022-08-19T08:36:06.933Z,101475.25
2022-08-19T08:38:41.034Z,101481.56
2022-08-19T08:41:32.388Z,101484.59
2022-08-19T08:44:04.389Z,101485.01
2022-08-19T08:46:42.910Z,101485.83
2022-08-19T08:49:31.661Z,101485.50
2022-08-19T08:52:07.248Z,101480.28
2022-08-19T08:54:49.100Z,101484.97
2022-08-19T08:57:19.550Z,101482.39
2022-08-19T08:59:52.705Z,101495.73
2022-08-19T09:02:22.485Z,101488.78
2022-08-19T09:04:53.401Z,101477.37
2022-08-19T09:07:34.813Z,101485.09
2022-08-19T09:10:12.512Z,101483.16
2022-08-19T09:12:51.740Z,101484.09
2022-08-19T09:15:28.856Z,101488.98
2022-08-19T09:17:56.334Z,101486.84
2022-08-19T09:20:26.529Z,101493.31
2022-08-19T09:22:56.260Z,101493.72
2022-08-19T09:25:27.120Z,101479.69
2022-08-19T09:28:02.950Z,101479.69
2022-08-19T09:30:32.215Z,101496.09
2022-08-19T09:33:02.301Z,101500.38
2022-08-19T09:35:32.626Z,101507.36
2022-08-19T09:38:06.630Z,101517.19
2022-08-19T09:40:38.594Z,101515.81
2022-08-19T09:43:09.902Z,101520.84
2022-08-19T09:45:39.966Z,101517.20
2022-08-19T09:48:11.748Z,101524.19
2022-08-19T09:50:51.585Z,101515.52
2022-08-19T09:53:13.284Z,101514.77
2022-08-19T09:55:46.166Z,101517.20
2022-08-19T09:58:15.731Z,101516.73
2022-08-19T10:00:51.620Z,101517.33
2022-08-19T10:03:18.381Z,101519.84
2022-08-19T10:05:55.164Z,101516.72
2022-08-19T10:08:26.714Z,101519.82
2022-08-19T10:10:59.155Z,101517.89
2022-08-19T10:13:31.354Z,101517.89
2022-08-19T10:16:09.999Z,101527.63
2022-08-19T10:18:44.286Z,101534.89
2022-08-19T10:21:20.801Z,101531.80
2022-08-19T10:23:52.607Z,101537.11
2022-08-19T10:26:28.319Z,101537.39
2022-08-19T10:28:59.223Z,101525.11
2022-08-19T10:31:59.958Z,101520.24
2022-08-19T10:34:04.018Z,101522.45
2022-08-19T10:36:37.168Z,101525.84
2022-08-19T10:39:13.220Z,101526.05
2022-08-19T10:41:44.233Z,101521.98
2022-08-19T10:44:16.950Z,101520.12
2022-08-19T10:46:48.929Z,101514.11
2022-08-19T10:49:20.179Z,101519.13
2022-08-19T10:52:10.317Z,101518.05
2022-08-19T10:54:57.092Z,101513.31
2022-08-19T10:57:46.020Z,101512.00
2022-08-19T11:00:00.442Z,101511.96
2022-08-19T11:02:30.218Z,101503.52
2022-08-19T11:05:04.856Z,101500.08
2022-08-19T11:07:31.482Z,101500.62
2022-08-19T11:10:01.275Z,101499.59
2022-08-19T11:12:31.056Z,101497.80
2022-08-19T11:15:01.588Z,101499.94
2022-08-19T11:17:32.455Z,101497.50
2022-08-19T11:20:03.946Z,101503.32
2022-08-19T11:22:39.045Z,101490.96
2022-08-19T11:25:08.649Z,101485.95
2022-08-19T11:27:44.497Z,101491.93
2022-08-19T11:30:16.839Z,101490.20
2022-08-19T11:32:49.369Z,101496.32
2022-08-19T11:35:20.252Z,101489.59
2022-08-19T11:37:50.075Z,101503.67
2022-08-19T11:40:19.702Z,101500.47
2022-08-19T11:42:59.178Z,101493.63
2022-08-19T11:45:30.303Z,101461.88
2022-08-19T11:48:00.075Z,101461.88
2022-08-19T11:50:29.935Z,101469.27
2022-08-19T11:52:59.510Z,101469.00
2022-08-19T11:55:29.087Z,101468.47
2022-08-19T11:57:58.773Z,101468.47
2022-08-19T12:00:28.315Z,101483.53
2022-08-19T12:02:58.102Z,101483.45
2022-08-19T12:05:27.882Z,101484.63
2022-08-19T12:07:57.671Z,101482.55
2022-08-19T12:10:27.792Z,101470.45
2022-08-19T12:12:58.985Z,101474.44
2022-08-19T12:15:37.268Z,101472.46
2022-08-19T12:18:01.520Z,101477.70
2022-08-19T12:20:35.473Z,101479.71
2022-08-19T12:23:06.144Z,101460.80
2022-08-19T12:25:35.834Z,101460.80
2022-08-19T12:28:06.730Z,101473.47
2022-08-19T12:30:39.828Z,101474.17
2022-08-19T12:33:09.847Z,101474.70
2022-08-19T12:35:45.541Z,101475.90
2022-08-19T12:38:15.542Z,101447.53
2022-08-19T12:40:51.965Z,101447.53
2022-08-19T12:43:22.422Z,101466.91
2022-08-19T12:45:52.389Z,101457.20
2022-08-19T12:48:33.843Z,101450.78
2022-08-19T12:50:55.057Z,101453.45
2022-08-19T12:53:25.739Z,101452.34
2022-08-19T12:56:00.663Z,101451.90
2022-08-19T12:58:30.775Z,101445.55
2022-08-19T13:01:00.620Z,101447.36
2022-08-19T13:03:30.506Z,101451.64
2022-08-19T13:06:00.300Z,101440.37
2022-08-19T13:08:31.614Z,101438.20
2022-08-19T13:11:11.794Z,101432.20
2022-08-19T13:13:44.319Z,101429.78
2022-08-19T13:16:15.537Z,101425.25
2022-08-19T13:18:49.009Z,101415.91
2022-08-19T13:21:20.666Z,101415.91
2022-08-19T13:23:53.366Z,101431.16
2022-08-19T13:26:23.687Z,101429.78
2022-08-19T13:29:11.441Z,101425.47
2022-08-19T13:32:00.904Z,101427.27
2022-08-19T13:34:36.431Z,101431.95
2022-08-19T13:37:07.243Z,101428.09
2022-08-19T13:39:37.747Z,101422.15
2022-08-19T13:42:11.295Z,101415.78
2022-08-19T13:44:41.094Z,101418.48
2022-08-19T13:47:12.823Z,101417.62
2022-08-19T13:49:42.975Z,101421.49
2022-08-19T13:52:13.690Z,101426.88
2022-08-19T13:54:44.307Z,101423.87
2022-08-19T13:57:15.836Z,101426.56
2022-08-19T13:59:45.644Z,101425.42
2022-08-19T14:02:15.717Z,101426.37
2022-08-19T14:04:45.512Z,101420.11
2022-08-19T14:07:15.379Z,101421.35
2022-08-19T14:09:45.162Z,101417.69
2022-08-19T14:12:18.145Z,101421.25
2022-08-19T14:14:49.789Z,101425.93
2022-08-19T14:17:19.644Z,101414.44
2022-08-19T14:19:49.429Z,101429.16
2022-08-19T14:22:22.260Z,101422.66
2022-08-19T14:24:51.152Z,101416.95
2022-08-19T14:27:20.651Z,101419.03
2022-08-19T14:29:50.435Z,101405.61
2022-08-19T14:32:20.293Z,101417.73
2022-08-19T14:34:50.140Z,101417.73
2022-08-19T14:37:20.296Z,101418.59
2022-08-19T14:39:50.981Z,101419.05
2022-08-19T14:42:20.859Z,101420.95
2022-08-19T14:44:50.954Z,101406.07
2022-08-19T14:47:20.726Z,101406.07
2022-08-19T14:49:52.214Z,101420.47
2022-08-19T14:52:22.899Z,101422.34
2022-08-19T14:54:52.425Z,101421.89
2022-08-19T14:57:22.203Z,101407.39
2022-08-19T14:59:52.002Z,101422.03
2022-08-19T15:02:34.649Z,101419.16
2022-08-19T15:04:58.151Z,101413.06
2022-08-19T15:07:24.473Z,101416.53
2022-08-19T15:09:56.302Z,101419.03
2022-08-19T15:12:26.320Z,101416.48
2022-08-19T15:14:57.039Z,101422.61
2022-08-19T15:17:43.511Z,101421.96
2022-08-19T15:19:58.677Z,101420.41
2022-08-19T15:22:28.215Z,101423.95
2022-08-19T15:24:58.001Z,101408.74
2022-08-19T15:27:28.818Z,101408.74
2022-08-19T15:30:01.176Z,101427.42
2022-08-19T15:32:31.808Z,101425.26
2022-08-19T15:35:03.345Z,101435.86
2022-08-19T15:37:36.969Z,101440.80
2022-08-19T15:40:08.959Z,101440.70
2022-08-19T15:42:41.749Z,101437.26
2022-08-19T15:45:13.179Z,101436.86
2022-08-19T15:47:43.390Z,101440.45
2022-08-19T15:50:17.385Z,101442.08
2022-08-19T15:52:52.716Z,101441.27
2022-08-19T15:55:33.521Z,101441.84
2022-08-19T15:58:24.163Z,101445.48
2022-08-19T16:01:03.023Z,101436.82
2022-08-19T16:03:50.835Z,101436.82
2022-08-19T16:06:27.818Z,101434.17
2022-08-19T16:09:01.843Z,101438.53
2022-08-19T16:11:39.371Z,101441.08
2022-08-19T16:14:09.197Z,101443.64
2022-08-19T16:16:39.316Z,101445.02
2022-08-19T16:19:12.012Z,101451.82
2022-08-19T16:21:42.167Z,101448.60
2022-08-19T16:24:14.561Z,101451.36
2022-08-19T16:26:46.041Z,101445.20
2022-08-19T16:29:22.061Z,101450.00
2022-08-19T16:31:49.760Z,101451.33
2022-08-19T16:34:19.227Z,101450.87
2022-08-19T16:36:49.638Z,101452.55
2022-08-19T16:39:19.868Z,101449.39
2022-08-19T16:41:49.636Z,101448.62
2022-08-19T16:44:20.803Z,101453.99
2022-08-19T16:46:57.225Z,101454.95
2022-08-19T16:49:53.438Z,101452.16
2022-08-19T16:51:56.012Z,101456.34
2022-08-19T16:54:30.722Z,101466.24
2022-08-19T16:56:58.105Z,101466.09
2022-08-19T16:59:28.168Z,101468.95
2022-08-19T17:01:57.990Z,101466.16
2022-08-19T17:04:27.492Z,101465.84
2022-08-19T17:06:57.253Z,101468.72
2022-08-19T17:09:27.090Z,101464.48
2022-08-19T17:11:58.723Z,101460.53
2022-08-19T17:14:28.209Z,101456.62
2022-08-19T17:16:57.979Z,101457.03
2022-08-19T17:19:28.295Z,101464.31
2022-08-19T17:21:58.352Z,101455.73
2022-08-19T17:24:27.829Z,101455.09
2022-08-19T17:26:57.410Z,101454.78
2022-08-19T17:29:27.443Z,101430.11
2022-08-19T17:31:57.207Z,101448.27
2022-08-19T17:34:26.683Z,101449.72
2022-08-19T17:36:59.047Z,101451.63
2022-08-19T17:39:29.187Z,101446.84
2022-08-19T17:42:02.528Z,101445.64
2022-08-19T17:44:30.419Z,101443.68
2022-08-19T17:47:00.188Z,101446.41
2022-08-19T17:49:29.963Z,101449.55
2022-08-19T17:52:01.566Z,101436.78
2022-08-19T17:54:33.831Z,101436.78
2022-08-19T17:57:02.891Z,101454.69
2022-08-19T17:59:32.741Z,101454.02
2022-08-19T18:02:02.629Z,101467.44
2022-08-19T18:04:33.507Z,101463.53
2022-08-19T18:07:04.228Z,101458.23
2022-08-19T18:09:41.414Z,101459.08
2022-08-19T18:12:11.732Z,101448.47
2022-08-19T18:14:42.042Z,101437.61
2022-08-19T18:17:13.662Z,101437.61
2022-08-19T18:19:44.845Z,101465.48
2022-08-19T18:22:26.518Z,101468.55
2022-08-19T18:24:58.298Z,101472.19
2022-08-19T18:27:28.690Z,101470.79
2022-08-19T18:29:59.669Z,101468.56
2022-08-19T18:32:36.608Z,101478.02
2022-08-19T18:35:11.041Z,101478.84
2022-08-19T18:37:42.236Z,101477.17
2022-08-19T18:40:37.973Z,101480.53
2022-08-19T18:43:15.782Z,101489.98
2022-08-19T18:46:03.730Z,101489.42
2022-08-19T18:48:53.425Z,101488.30
2022-08-19T18:51:28.448Z,101491.37
2022-08-19T18:53:58.631Z,101492.22
2022-08-19T18:56:32.119Z,101495.55
2022-08-19T18:59:02.496Z,101499.08
2022-08-19T19:01:38.625Z,101501.53
2022-08-19T19:04:11.338Z,101501.53
2022-08-19T19:06:42.770Z,101506.23
2022-08-19T19:09:18.085Z,101503.05
2022-08-19T19:11:51.135Z,101504.00
2022-08-19T19:14:48.043Z,101502.98
2022-08-19T19:17:01.806Z,101507.66
2022-08-19T19:19:33.330Z,101518.79
2022-08-19T19:22:04.923Z,101518.16
2022-08-19T19:24:36.809Z,101519.55
2022-08-19T19:27:08.592Z,101524.80
2022-08-19T19:29:39.313Z,101529.56
2022-08-19T19:32:14.106Z,101530.75
2022-08-19T19:34:43.962Z,101533.53
2022-08-19T19:37:13.800Z,101534.09
2022-08-19T19:39:46.102Z,101534.38
2022-08-19T19:42:20.993Z,101514.66
2022-08-19T19:44:54.626Z,101514.66
2022-08-19T19:47:25.578Z,101529.77
2022-08-19T19:50:14.866Z,101537.61
2022-08-19T19:52:27.858Z,101545.84
2022-08-19T19:54:57.650Z,101544.66
2022-08-19T19:57:29.181Z,101545.50
2022-08-19T19:59:59.309Z,101548.76
2022-08-19T20:02:29.150Z,101545.39
2022-08-19T20:04:59.090Z,101548.69
2022-08-19T20:07:46.689Z,101553.20
2022-08-19T20:10:17.327Z,101556.59
2022-08-19T20:12:47.094Z,101551.06
2022-08-19T20:15:16.937Z,101552.55
2022-08-19T20:17:47.363Z,101550.14
2022-08-19T20:20:19.247Z,101563.08
2022-08-19T20:22:49.079Z,101558.83
2022-08-19T20:25:22.204Z,101554.91
2022-08-19T20:27:52.417Z,101552.08
2022-08-19T20:30:24.824Z,101556.45
2022-08-19T20:32:56.420Z,101555.81
2022-08-19T20:35:26.672Z,101556.33
2022-08-19T20:37:58.356Z,101555.31
2022-08-19T20:40:29.965Z,101556.66
2022-08-19T20:42:59.437Z,101568.31
2022-08-19T20:45:33.007Z,101571.22
2022-08-19T20:48:02.392Z,101571.71
2022-08-19T20:50:34.841Z,101574.03
2022-08-19T20:53:16.259Z,101579.03
2022-08-19T20:55:50.000Z,101582.55
2022-08-19T20:58:21.909Z,101582.03
2022-08-19T21:00:56.036Z,101583.49
2022-08-19T21:03:28.592Z,101585.41
2022-08-19T21:05:58.704Z,101587.37
2022-08-19T21:08:28.617Z,101582.62
2022-08-19T21:10:59.220Z,101580.94
2022-08-19T21:13:29.429Z,101584.84
2022-08-19T21:15:59.272Z,101575.04
2022-08-19T21:18:28.825Z,101573.75
2022-08-19T21:20:59.085Z,101571.98
2022-08-19T21:23:30.958Z,101564.47
2022-08-19T21:26:01.955Z,101565.13
2022-08-19T21:28:35.774Z,101568.09
2022-08-19T21:31:03.913Z,101560.91
2022-08-19T21:33:34.345Z,101557.07
2022-08-19T21:36:07.042Z,101558.19
2022-08-19T21:38:37.940Z,101551.33
2022-08-19T21:41:08.163Z,101558.38
2022-08-19T21:43:38.690Z,101544.33
2022-08-19T21:46:10.877Z,101560.34
2022-08-19T21:48:41.891Z,101560.31
2022-08-19T21:51:11.673Z,101553.33
2022-08-19T21:53:41.493Z,101533.88
2022-08-19T21:56:12.963Z,101533.88
2022-08-19T21:58:42.737Z,101561.72
2022-08-19T22:01:12.860Z,101557.77
2022-08-19T22:03:43.201Z,101561.66
2022-08-19T22:06:12.666Z,101567.62
2022-08-19T22:08:44.159Z,101573.70
2022-08-19T22:11:13.654Z,101576.80
2022-08-19T22:13:43.441Z,101567.28
2022-08-19T22:16:14.206Z,101567.28
2022-08-19T22:18:44.336Z,101577.73
2022-08-19T22:21:14.486Z,101577.73
2022-08-19T22:23:47.498Z,101578.22
2022-08-19T22:26:18.709Z,101587.44
2022-08-19T22:28:48.485Z,101583.20
2022-08-19T22:31:19.446Z,101573.77
2022-08-19T22:33:49.219Z,101578.81
2022-08-19T22:36:19.127Z,101578.41
2022-08-19T22:38:48.898Z,101565.98
2022-08-19T22:41:18.673Z,101565.98
2022-08-19T22:43:48.532Z,101583.78
2022-08-19T22:46:18.307Z,101577.03
2022-08-19T22:48:55.971Z,101564.09
2022-08-19T22:51:38.055Z,101564.09
2022-08-19T22:54:07.797Z,101578.90
2022-08-19T22:56:37.438Z,101572.07
2022-08-19T22:59:08.390Z,101577.85
2022-08-19T23:01:38.342Z,101583.54
2022-08-19T23:04:09.931Z,101574.80
2022-08-19T23:06:42.203Z,101577.16
2022-08-19T23:09:16.682Z,101575.34
2022-08-19T23:11:43.439Z,101578.48
2022-08-19T23:14:14.331Z,101583.20
2022-08-19T23:16:50.432Z,101580.08
2022-08-19T23:19:17.313Z,101565.91
2022-08-19T23:21:47.738Z,101565.91
2022-08-19T23:24:17.527Z,101579.88
2022-08-19T23:27:05.236Z,101585.16
2022-08-19T23:29:55.597Z,101587.09
2022-08-19T23:32:25.645Z,101585.70
2022-08-19T23:34:57.674Z,101573.33
2022-08-19T23:37:29.141Z,101571.41
2022-08-19T23:39:58.995Z,101568.28
2022-08-19T23:42:28.757Z,101570.41
2022-08-19T23:45:03.881Z,101572.56
2022-08-19T23:47:34.494Z,101572.56
2022-08-19T23:50:07.952Z,101570.14
2022-08-19T23:52:46.827Z,101573.66
2022-08-19T23:55:18.345Z,101575.00
2022-08-19T23:57:47.829Z,101582.27
